sensor_id;sensor_type;location;lat;lon;timestamp;temperature;humidity
51029;DHT22;37054;52.054;8.600;2024-03-02T00:02:01;9.80;55.70
51029;DHT22;37054;52.054;8.600;2024-03-02T00:04:27;9.80;55.70
51029;DHT22;37054;52.054;8.600;2024-03-02T00:06:52;9.70;55.60
51029;DHT22;37054;52.054;8.600;2024-03-02T00:09:21;9.70;55.70
51029;DHT22;37054;52.054;8.600;2024-03-02T00:11:46;9.60;55.70
51029;DHT22;37054;52.054;8.600;2024-03-02T00:14:12;9.60;55.70
51029;DHT22;37054;52.054;8.600;2024-03-02T00:16:38;9.50;55.70
51029;DHT22;37054;52.054;8.600;2024-03-02T00:19:05;9.50;55.70
51029;DHT22;37054;52.054;8.600;2024-03-02T00:21:31;9.40;55.70
51029;DHT22;37054;52.054;8.600;2024-03-02T00:23:57;9.40;55.80
51029;DHT22;37054;52.054;8.600;2024-03-02T00:26:22;9.30;55.80
51029;DHT22;37054;52.054;8.600;2024-03-02T00:28:48;9.30;55.80
51029;DHT22;37054;52.054;8.600;2024-03-02T00:31:16;9.30;55.80
51029;DHT22;37054;52.054;8.600;2024-03-02T00:33:46;9.30;56.00
51029;DHT22;37054;52.054;8.600;2024-03-02T00:36:13;9.30;56.00
51029;DHT22;37054;52.054;8.600;2024-03-02T00:38:48;9.20;56.40
51029;DHT22;37054;52.054;8.600;2024-03-02T00:41:24;9.30;56.50
51029;DHT22;37054;52.054;8.600;2024-03-02T00:44:02;9.30;56.70
51029;DHT22;37054;52.054;8.600;2024-03-02T00:46:36;9.20;56.70
51029;DHT22;37054;52.054;8.600;2024-03-02T00:49:04;9.20;56.70
51029;DHT22;37054;52.054;8.600;2024-03-02T00:51:31;9.20;56.90
51029;DHT22;37054;52.054;8.600;2024-03-02T00:54:01;9.20;57.00
51029;DHT22;37054;52.054;8.600;2024-03-02T00:56:29;9.20;56.90
51029;DHT22;37054;52.054;8.600;2024-03-02T00:58:55;9.20;57.10
51029;DHT22;37054;52.054;8.600;2024-03-02T01:01:20;9.20;56.90
51029;DHT22;37054;52.054;8.600;2024-03-02T01:03:46;9.20;57.10
51029;DHT22;37054;52.054;8.600;2024-03-02T01:06:12;9.20;57.20
51029;DHT22;37054;52.054;8.600;2024-03-02T01:08:38;9.20;57.30
51029;DHT22;37054;52.054;8.600;2024-03-02T01:11:04;9.20;57.20
51029;DHT22;37054;52.054;8.600;2024-03-02T01:13:30;9.20;57.10
51029;DHT22;37054;52.054;8.600;2024-03-02T01:15:56;9.10;57.20
51029;DHT22;37054;52.054;8.600;2024-03-02T01:18:22;9.00;57.00
51029;DHT22;37054;52.054;8.600;2024-03-02T01:20:48;9.00;57.10
51029;DHT22;37054;52.054;8.600;2024-03-02T01:23:13;8.90;57.00
51029;DHT22;37054;52.054;8.600;2024-03-02T01:25:39;8.80;57.20
51029;DHT22;37054;52.054;8.600;2024-03-02T01:28:05;8.70;57.60
51029;DHT22;37054;52.054;8.600;2024-03-02T01:30:30;8.70;57.60
51029;DHT22;37054;52.054;8.600;2024-03-02T01:32:56;8.70;57.70
51029;DHT22;37054;52.054;8.600;2024-03-02T01:35:21;8.60;57.70
51029;DHT22;37054;52.054;8.600;2024-03-02T01:37:47;8.60;57.60
51029;DHT22;37054;52.054;8.600;2024-03-02T01:40:12;8.50;57.70
51029;DHT22;37054;52.054;8.600;2024-03-02T01:42:38;8.50;57.70
51029;DHT22;37054;52.054;8.600;2024-03-02T01:45:05;8.40;57.60
51029;DHT22;37054;52.054;8.600;2024-03-02T01:47:31;8.30;57.80
51029;DHT22;37054;52.054;8.600;2024-03-02T01:49:57;8.30;57.90
51029;DHT22;37054;52.054;8.600;2024-03-02T01:52:23;8.20;57.90
51029;DHT22;37054;52.054;8.600;2024-03-02T01:54:49;8.30;57.80
51029;DHT22;37054;52.054;8.600;2024-03-02T01:57:15;8.20;58.00
51029;DHT22;37054;52.054;8.600;2024-03-02T01:59:40;8.20;58.20
51029;DHT22;37054;52.054;8.600;2024-03-02T02:02:06;8.20;58.10
51029;DHT22;37054;52.054;8.600;2024-03-02T02:04:32;8.20;58.30
51029;DHT22;37054;52.054;8.600;2024-03-02T02:06:58;8.20;58.60
51029;DHT22;37054;52.054;8.600;2024-03-02T02:09:23;8.20;58.70
51029;DHT22;37054;52.054;8.600;2024-03-02T02:11:50;8.20;58.80
51029;DHT22;37054;52.054;8.600;2024-03-02T02:14:16;8.20;58.70
51029;DHT22;37054;52.054;8.600;2024-03-02T02:16:42;8.20;58.60
51029;DHT22;37054;52.054;8.600;2024-03-02T02:19:07;8.10;58.50
51029;DHT22;37054;52.054;8.600;2024-03-02T02:21:33;8.10;58.50
51029;DHT22;37054;52.054;8.600;2024-03-02T02:23:59;8.10;58.70
51029;DHT22;37054;52.054;8.600;2024-03-02T02:26:24;8.10;58.90
51029;DHT22;37054;52.054;8.600;2024-03-02T02:28:50;8.10;59.00
51029;DHT22;37054;52.054;8.600;2024-03-02T02:31:16;8.10;59.30
51029;DHT22;37054;52.054;8.600;2024-03-02T02:33:42;8.10;59.50
51029;DHT22;37054;52.054;8.600;2024-03-02T02:36:07;8.10;59.60
51029;DHT22;37054;52.054;8.600;2024-03-02T02:38:37;8.20;59.60
51029;DHT22;37054;52.054;8.600;2024-03-02T02:41:03;8.10;59.60
51029;DHT22;37054;52.054;8.600;2024-03-02T02:43:29;8.20;59.40
51029;DHT22;37054;52.054;8.600;2024-03-02T02:45:54;8.10;59.30
51029;DHT22;37054;52.054;8.600;2024-03-02T02:48:20;8.10;59.50
51029;DHT22;37054;52.054;8.600;2024-03-02T02:50:45;8.20;59.50
51029;DHT22;37054;52.054;8.600;2024-03-02T02:53:11;8.10;59.40
51029;DHT22;37054;52.054;8.600;2024-03-02T02:55:36;8.10;59.40
51029;DHT22;37054;52.054;8.600;2024-03-02T02:58:12;8.10;59.30
51029;DHT22;37054;52.054;8.600;2024-03-02T03:00:37;8.10;59.40
51029;DHT22;37054;52.054;8.600;2024-03-02T03:03:03;8.00;59.40
51029;DHT22;37054;52.054;8.600;2024-03-02T03:05:30;8.00;59.60
51029;DHT22;37054;52.054;8.600;2024-03-02T03:07:55;8.00;59.60
51029;DHT22;37054;52.054;8.600;2024-03-02T03:10:21;8.00;59.50
51029;DHT22;37054;52.054;8.600;2024-03-02T03:12:48;8.00;59.80
51029;DHT22;37054;52.054;8.600;2024-03-02T03:15:14;8.10;60.40
51029;DHT22;37054;52.054;8.600;2024-03-02T03:17:41;8.20;60.50
51029;DHT22;37054;52.054;8.600;2024-03-02T03:20:07;8.20;60.60
51029;DHT22;37054;52.054;8.600;2024-03-02T03:22:35;8.30;60.50
51029;DHT22;37054;52.054;8.600;2024-03-02T03:25:01;8.30;60.40
51029;DHT22;37054;52.054;8.600;2024-03-02T03:27:26;8.30;60.70
51029;DHT22;37054;52.054;8.600;2024-03-02T03:29:52;8.40;60.80
51029;DHT22;37054;52.054;8.600;2024-03-02T03:32:18;8.50;60.90
51029;DHT22;37054;52.054;8.600;2024-03-02T03:34:43;8.60;60.90
51029;DHT22;37054;52.054;8.600;2024-03-02T03:37:09;8.60;61.20
51029;DHT22;37054;52.054;8.600;2024-03-02T03:39:35;8.70;61.20
51029;DHT22;37054;52.054;8.600;2024-03-02T03:42:04;8.70;61.10
51029;DHT22;37054;52.054;8.600;2024-03-02T03:44:29;8.80;60.90
51029;DHT22;37054;52.054;8.600;2024-03-02T03:46:55;8.80;60.80
51029;DHT22;37054;52.054;8.600;2024-03-02T03:49:20;8.80;60.50
51029;DHT22;37054;52.054;8.600;2024-03-02T03:51:46;8.70;60.20
51029;DHT22;37054;52.054;8.600;2024-03-02T03:54:12;8.70;60.10
51029;DHT22;37054;52.054;8.600;2024-03-02T03:56:37;8.60;60.10
51029;DHT22;37054;52.054;8.600;2024-03-02T03:59:03;8.70;60.10
51029;DHT22;37054;52.054;8.600;2024-03-02T04:01:30;8.60;59.90
51029;DHT22;37054;52.054;8.600;2024-03-02T04:03:55;8.50;59.80
51029;DHT22;37054;52.054;8.600;2024-03-02T04:06:21;8.50;60.00
51029;DHT22;37054;52.054;8.600;2024-03-02T04:08:46;8.40;60.10
51029;DHT22;37054;52.054;8.600;2024-03-02T04:11:12;8.50;60.20
51029;DHT22;37054;52.054;8.600;2024-03-02T04:13:37;8.40;60.40
51029;DHT22;37054;52.054;8.600;2024-03-02T04:16:03;8.40;60.40
51029;DHT22;37054;52.054;8.600;2024-03-02T04:18:30;8.40;60.50
51029;DHT22;37054;52.054;8.600;2024-03-02T04:20:56;8.40;60.50
51029;DHT22;37054;52.054;8.600;2024-03-02T04:23:23;8.40;60.50
51029;DHT22;37054;52.054;8.600;2024-03-02T04:25:48;8.40;60.60
51029;DHT22;37054;52.054;8.600;2024-03-02T04:28:14;8.30;60.70
51029;DHT22;37054;52.054;8.600;2024-03-02T04:30:39;8.40;60.70
51029;DHT22;37054;52.054;8.600;2024-03-02T04:33:05;8.40;60.70
51029;DHT22;37054;52.054;8.600;2024-03-02T04:35:32;8.40;60.60
51029;DHT22;37054;52.054;8.600;2024-03-02T04:37:58;8.40;60.30
51029;DHT22;37054;52.054;8.600;2024-03-02T04:40:23;8.30;60.20
51029;DHT22;37054;52.054;8.600;2024-03-02T04:42:49;8.30;60.30
51029;DHT22;37054;52.054;8.600;2024-03-02T04:45:14;8.30;60.60
51029;DHT22;37054;52.054;8.600;2024-03-02T04:47:40;8.30;60.90
51029;DHT22;37054;52.054;8.600;2024-03-02T04:50:06;8.40;61.10
51029;DHT22;37054;52.054;8.600;2024-03-02T04:52:33;8.50;61.50
51029;DHT22;37054;52.054;8.600;2024-03-02T04:54:58;8.50;61.50
51029;DHT22;37054;52.054;8.600;2024-03-02T04:57:50;8.60;61.60
51029;DHT22;37054;52.054;8.600;2024-03-02T05:00:16;8.70;61.70
51029;DHT22;37054;52.054;8.600;2024-03-02T05:02:42;8.70;62.00
51029;DHT22;37054;52.054;8.600;2024-03-02T05:05:08;8.80;62.30
51029;DHT22;37054;52.054;8.600;2024-03-02T05:07:33;9.00;62.30
51029;DHT22;37054;52.054;8.600;2024-03-02T05:09:59;9.10;62.30
51029;DHT22;37054;52.054;8.600;2024-03-02T05:12:24;9.10;62.10
51029;DHT22;37054;52.054;8.600;2024-03-02T05:15:09;9.20;62.00
51029;DHT22;37054;52.054;8.600;2024-03-02T05:17:36;9.20;61.90
51029;DHT22;37054;52.054;8.600;2024-03-02T05:20:02;9.30;61.90
51029;DHT22;37054;52.054;8.600;2024-03-02T05:22:28;9.30;62.10
51029;DHT22;37054;52.054;8.600;2024-03-02T05:24:54;9.40;62.00
51029;DHT22;37054;52.054;8.600;2024-03-02T05:27:19;9.40;61.90
51029;DHT22;37054;52.054;8.600;2024-03-02T05:29:45;9.50;61.90
51029;DHT22;37054;52.054;8.600;2024-03-02T05:32:10;9.50;61.70
51029;DHT22;37054;52.054;8.600;2024-03-02T05:34:36;9.50;61.80
51029;DHT22;37054;52.054;8.600;2024-03-02T05:37:01;9.60;61.70
51029;DHT22;37054;52.054;8.600;2024-03-02T05:39:27;9.60;61.70
51029;DHT22;37054;52.054;8.600;2024-03-02T05:41:52;9.60;61.70
51029;DHT22;37054;52.054;8.600;2024-03-02T05:44:18;9.70;61.70
51029;DHT22;37054;52.054;8.600;2024-03-02T05:46:45;9.70;61.50
51029;DHT22;37054;52.054;8.600;2024-03-02T05:49:11;9.70;61.70
51029;DHT22;37054;52.054;8.600;2024-03-02T05:51:36;9.80;61.70
51029;DHT22;37054;52.054;8.600;2024-03-02T05:54:02;9.80;61.60
51029;DHT22;37054;52.054;8.600;2024-03-02T05:56:28;9.80;61.50
51029;DHT22;37054;52.054;8.600;2024-03-02T05:58:53;9.80;61.50
51029;DHT22;37054;52.054;8.600;2024-03-02T06:01:39;9.90;61.50
51029;DHT22;37054;52.054;8.600;2024-03-02T06:04:04;9.90;61.50
51029;DHT22;37054;52.054;8.600;2024-03-02T06:06:30;9.90;61.60
51029;DHT22;37054;52.054;8.600;2024-03-02T06:08:55;9.90;61.50
51029;DHT22;37054;52.054;8.600;2024-03-02T06:11:21;10.00;61.60
51029;DHT22;37054;52.054;8.600;2024-03-02T06:13:47;10.00;61.30
51029;DHT22;37054;52.054;8.600;2024-03-02T06:16:12;10.10;61.20
51029;DHT22;37054;52.054;8.600;2024-03-02T06:18:38;10.10;61.10
51029;DHT22;37054;52.054;8.600;2024-03-02T06:21:04;10.10;61.10
51029;DHT22;37054;52.054;8.600;2024-03-02T06:23:30;10.10;61.10
51029;DHT22;37054;52.054;8.600;2024-03-02T06:25:55;10.20;61.10
51029;DHT22;37054;52.054;8.600;2024-03-02T06:28:21;10.20;61.10
51029;DHT22;37054;52.054;8.600;2024-03-02T06:30:46;10.30;61.10
51029;DHT22;37054;52.054;8.600;2024-03-02T06:33:12;10.30;60.90
51029;DHT22;37054;52.054;8.600;2024-03-02T06:35:37;10.40;60.90
51029;DHT22;37054;52.054;8.600;2024-03-02T06:38:03;10.40;60.90
51029;DHT22;37054;52.054;8.600;2024-03-02T06:40:29;10.50;60.80
51029;DHT22;37054;52.054;8.600;2024-03-02T06:42:54;10.50;60.90
51029;DHT22;37054;52.054;8.600;2024-03-02T06:45:20;10.60;60.90
51029;DHT22;37054;52.054;8.600;2024-03-02T06:47:45;10.70;61.10
51029;DHT22;37054;52.054;8.600;2024-03-02T06:50:11;10.90;61.10
51029;DHT22;37054;52.054;8.600;2024-03-02T06:52:36;11.00;60.90
51029;DHT22;37054;52.054;8.600;2024-03-02T06:55:02;11.20;60.80
51029;DHT22;37054;52.054;8.600;2024-03-02T06:57:30;11.40;61.00
51029;DHT22;37054;52.054;8.600;2024-03-02T06:59:55;11.60;61.10
51029;DHT22;37054;52.054;8.600;2024-03-02T07:02:26;11.70;60.50
51029;DHT22;37054;52.054;8.600;2024-03-02T07:04:53;11.70;59.90
51029;DHT22;37054;52.054;8.600;2024-03-02T07:07:18;11.80;59.40
51029;DHT22;37054;52.054;8.600;2024-03-02T07:09:44;11.80;59.00
51029;DHT22;37054;52.054;8.600;2024-03-02T07:12:09;11.80;58.80
51029;DHT22;37054;52.054;8.600;2024-03-02T07:14:35;11.80;58.60
51029;DHT22;37054;52.054;8.600;2024-03-02T07:17:20;11.80;58.60
51029;DHT22;37054;52.054;8.600;2024-03-02T07:19:45;11.80;58.50
51029;DHT22;37054;52.054;8.600;2024-03-02T07:22:11;11.90;58.40
51029;DHT22;37054;52.054;8.600;2024-03-02T07:24:41;11.90;58.20
51029;DHT22;37054;52.054;8.600;2024-03-02T07:27:07;12.00;58.10
51029;DHT22;37054;52.054;8.600;2024-03-02T07:29:33;12.00;57.90
51029;DHT22;37054;52.054;8.600;2024-03-02T07:31:58;12.00;57.70
51029;DHT22;37054;52.054;8.600;2024-03-02T07:34:24;12.10;57.60
51029;DHT22;37054;52.054;8.600;2024-03-02T07:36:49;12.10;57.30
51029;DHT22;37054;52.054;8.600;2024-03-02T07:39:15;12.20;57.30
51029;DHT22;37054;52.054;8.600;2024-03-02T07:41:41;12.20;57.40
51029;DHT22;37054;52.054;8.600;2024-03-02T07:44:07;12.30;57.00
51029;DHT22;37054;52.054;8.600;2024-03-02T07:46:32;12.50;57.10
51029;DHT22;37054;52.054;8.600;2024-03-02T07:48:58;12.60;56.90
51029;DHT22;37054;52.054;8.600;2024-03-02T07:51:24;12.70;56.70
51029;DHT22;37054;52.054;8.600;2024-03-02T07:53:49;12.70;56.50
51029;DHT22;37054;52.054;8.600;2024-03-02T07:56:15;13.00;56.80
51029;DHT22;37054;52.054;8.600;2024-03-02T07:58:47;13.20;56.60
51029;DHT22;37054;52.054;8.600;2024-03-02T08:01:14;13.40;56.50
51029;DHT22;37054;52.054;8.600;2024-03-02T08:03:40;13.80;56.50
51029;DHT22;37054;52.054;8.600;2024-03-02T08:06:06;14.00;55.70
51029;DHT22;37054;52.054;8.600;2024-03-02T08:08:31;14.40;54.90
51029;DHT22;37054;52.054;8.600;2024-03-02T08:10:57;14.70;54.40
51029;DHT22;37054;52.054;8.600;2024-03-02T08:13:22;15.20;54.00
51029;DHT22;37054;52.054;8.600;2024-03-02T08:15:48;15.60;54.00
51029;DHT22;37054;52.054;8.600;2024-03-02T08:18:14;16.20;52.90
51029;DHT22;37054;52.054;8.600;2024-03-02T08:20:40;16.80;51.90
51029;DHT22;37054;52.054;8.600;2024-03-02T08:23:06;17.30;49.90
51029;DHT22;37054;52.054;8.600;2024-03-02T08:25:31;17.70;49.30
51029;DHT22;37054;52.054;8.600;2024-03-02T08:27:57;18.20;48.00
51029;DHT22;37054;52.054;8.600;2024-03-02T08:30:23;18.60;46.00
51029;DHT22;37054;52.054;8.600;2024-03-02T08:32:48;18.90;45.10
51029;DHT22;37054;52.054;8.600;2024-03-02T08:35:14;19.30;44.80
51029;DHT22;37054;52.054;8.600;2024-03-02T08:37:41;19.60;44.10
51029;DHT22;37054;52.054;8.600;2024-03-02T08:40:08;19.90;42.80
51029;DHT22;37054;52.054;8.600;2024-03-02T08:42:34;20.20;42.30
51029;DHT22;37054;52.054;8.600;2024-03-02T08:45:00;20.60;42.10
51029;DHT22;37054;52.054;8.600;2024-03-02T08:47:26;20.90;41.10
51029;DHT22;37054;52.054;8.600;2024-03-02T08:49:52;21.20;40.70
51029;DHT22;37054;52.054;8.600;2024-03-02T08:52:18;21.60;40.50
51029;DHT22;37054;52.054;8.600;2024-03-02T08:54:43;21.80;39.60
51029;DHT22;37054;52.054;8.600;2024-03-02T08:57:09;22.10;38.80
51029;DHT22;37054;52.054;8.600;2024-03-02T08:59:35;22.30;37.30
51029;DHT22;37054;52.054;8.600;2024-03-02T09:02:00;22.40;35.90
51029;DHT22;37054;52.054;8.600;2024-03-02T09:04:26;22.50;36.20
51029;DHT22;37054;52.054;8.600;2024-03-02T09:06:52;22.70;36.00
51029;DHT22;37054;52.054;8.600;2024-03-02T09:09:17;22.90;36.50
51029;DHT22;37054;52.054;8.600;2024-03-02T09:11:43;23.10;35.20
51029;DHT22;37054;52.054;8.600;2024-03-02T09:14:08;23.30;34.70
51029;DHT22;37054;52.054;8.600;2024-03-02T09:16:35;23.50;34.90
51029;DHT22;37054;52.054;8.600;2024-03-02T09:19:01;23.70;34.60
51029;DHT22;37054;52.054;8.600;2024-03-02T09:21:26;24.00;34.90
51029;DHT22;37054;52.054;8.600;2024-03-02T09:23:52;24.20;34.40
51029;DHT22;37054;52.054;8.600;2024-03-02T09:26:17;24.50;33.60
51029;DHT22;37054;52.054;8.600;2024-03-02T09:28:45;24.60;33.30
51029;DHT22;37054;52.054;8.600;2024-03-02T09:31:10;24.70;32.40
51029;DHT22;37054;52.054;8.600;2024-03-02T09:33:37;24.80;32.10
51029;DHT22;37054;52.054;8.600;2024-03-02T09:36:04;24.80;31.60
51029;DHT22;37054;52.054;8.600;2024-03-02T09:38:32;24.80;31.60
51029;DHT22;37054;52.054;8.600;2024-03-02T09:41:00;25.00;31.80
51029;DHT22;37054;52.054;8.600;2024-03-02T09:43:26;25.10;31.10
51029;DHT22;37054;52.054;8.600;2024-03-02T09:45:52;25.20;31.10
51029;DHT22;37054;52.054;8.600;2024-03-02T09:48:18;25.30;30.80
51029;DHT22;37054;52.054;8.600;2024-03-02T09:50:46;25.30;30.40
51029;DHT22;37054;52.054;8.600;2024-03-02T09:53:12;25.30;30.20
51029;DHT22;37054;52.054;8.600;2024-03-02T09:55:38;25.50;30.30
51029;DHT22;37054;52.054;8.600;2024-03-02T09:58:08;25.50;29.70
51029;DHT22;37054;52.054;8.600;2024-03-02T10:00:33;25.40;28.90
51029;DHT22;37054;52.054;8.600;2024-03-02T10:02:59;25.30;28.90
51029;DHT22;37054;52.054;8.600;2024-03-02T10:05:26;25.40;29.50
51029;DHT22;37054;52.054;8.600;2024-03-02T10:07:59;25.50;29.30
51029;DHT22;37054;52.054;8.600;2024-03-02T10:10:40;25.60;29.40
51029;DHT22;37054;52.054;8.600;2024-03-02T10:13:06;25.60;29.20
51029;DHT22;37054;52.054;8.600;2024-03-02T10:15:34;25.60;28.20
51029;DHT22;37054;52.054;8.600;2024-03-02T10:18:00;25.50;28.60
51029;DHT22;37054;52.054;8.600;2024-03-02T10:20:26;25.50;29.20
51029;DHT22;37054;52.054;8.600;2024-03-02T10:22:55;25.50;28.60
51029;DHT22;37054;52.054;8.600;2024-03-02T10:25:33;25.50;28.20
51029;DHT22;37054;52.054;8.600;2024-03-02T10:28:00;25.50;28.60
51029;DHT22;37054;52.054;8.600;2024-03-02T10:30:29;25.50;28.40
51029;DHT22;37054;52.054;8.600;2024-03-02T10:32:54;25.50;27.90
51029;DHT22;37054;52.054;8.600;2024-03-02T10:35:24;25.50;28.20
51029;DHT22;37054;52.054;8.600;2024-03-02T10:37:52;25.40;27.80
51029;DHT22;37054;52.054;8.600;2024-03-02T10:40:21;25.30;28.00
51029;DHT22;37054;52.054;8.600;2024-03-02T10:42:47;25.30;28.30
51029;DHT22;37054;52.054;8.600;2024-03-02T10:45:15;25.30;28.10
51029;DHT22;37054;52.054;8.600;2024-03-02T10:47:42;25.20;28.40
51029;DHT22;37054;52.054;8.600;2024-03-02T10:50:08;25.20;28.50
51029;DHT22;37054;52.054;8.600;2024-03-02T10:52:35;25.30;28.30
51029;DHT22;37054;52.054;8.600;2024-03-02T10:55:01;25.20;28.40
51029;DHT22;37054;52.054;8.600;2024-03-02T10:57:27;25.30;28.60
51029;DHT22;37054;52.054;8.600;2024-03-02T11:00:03;25.30;28.90
51029;DHT22;37054;52.054;8.600;2024-03-02T11:02:33;25.40;29.10
51029;DHT22;37054;52.054;8.600;2024-03-02T11:05:00;25.50;29.60
51029;DHT22;37054;52.054;8.600;2024-03-02T11:07:33;25.70;29.40
51029;DHT22;37054;52.054;8.600;2024-03-02T11:10:01;25.80;28.20
51029;DHT22;37054;52.054;8.600;2024-03-02T11:12:38;25.70;27.80
51029;DHT22;37054;52.054;8.600;2024-03-02T11:15:10;25.60;28.30
51029;DHT22;37054;52.054;8.600;2024-03-02T11:17:38;25.50;28.10
51029;DHT22;37054;52.054;8.600;2024-03-02T11:20:06;25.50;28.50
51029;DHT22;37054;52.054;8.600;2024-03-02T11:22:35;25.50;27.90
51029;DHT22;37054;52.054;8.600;2024-03-02T11:25:01;25.30;27.90
51029;DHT22;37054;52.054;8.600;2024-03-02T11:33:06;24.30;28.40
51029;DHT22;37054;52.054;8.600;2024-03-02T11:35:35;24.00;29.00
51029;DHT22;37054;52.054;8.600;2024-03-02T11:38:01;24.00;29.40
51029;DHT22;37054;52.054;8.600;2024-03-02T11:40:29;23.90;29.90
51029;DHT22;37054;52.054;8.600;2024-03-02T11:42:55;23.90;29.80
51029;DHT22;37054;52.054;8.600;2024-03-02T11:45:25;23.90;30.30
51029;DHT22;37054;52.054;8.600;2024-03-02T11:47:54;23.90;30.10
51029;DHT22;37054;52.054;8.600;2024-03-02T11:50:30;23.80;29.90
51029;DHT22;37054;52.054;8.600;2024-03-02T11:52:56;23.80;30.00
51029;DHT22;37054;52.054;8.600;2024-03-02T11:55:23;23.70;30.50
51029;DHT22;37054;52.054;8.600;2024-03-02T11:57:52;23.70;30.40
51029;DHT22;37054;52.054;8.600;2024-03-02T12:00:18;23.60;30.50
51029;DHT22;37054;52.054;8.600;2024-03-02T12:02:46;23.60;30.80
51029;DHT22;37054;52.054;8.600;2024-03-02T12:05:15;23.60;30.60
51029;DHT22;37054;52.054;8.600;2024-03-02T12:07:42;23.60;30.70
51029;DHT22;37054;52.054;8.600;2024-03-02T12:10:09;23.60;30.70
51029;DHT22;37054;52.054;8.600;2024-03-02T12:12:34;23.50;30.70
51029;DHT22;37054;52.054;8.600;2024-03-02T12:15:00;23.40;30.80
51029;DHT22;37054;52.054;8.600;2024-03-02T12:17:26;23.40;30.80
51029;DHT22;37054;52.054;8.600;2024-03-02T12:19:51;23.40;30.90
51029;DHT22;37054;52.054;8.600;2024-03-02T12:22:18;23.40;30.90
51029;DHT22;37054;52.054;8.600;2024-03-02T12:24:44;23.20;31.00
51029;DHT22;37054;52.054;8.600;2024-03-02T12:27:14;23.10;31.00
51029;DHT22;37054;52.054;8.600;2024-03-02T12:29:40;23.00;31.40
51029;DHT22;37054;52.054;8.600;2024-03-02T12:32:06;23.00;31.50
51029;DHT22;37054;52.054;8.600;2024-03-02T12:34:31;22.90;31.60
51029;DHT22;37054;52.054;8.600;2024-03-02T12:36:57;22.80;31.60
51029;DHT22;37054;52.054;8.600;2024-03-02T12:39:23;22.70;31.50
51029;DHT22;37054;52.054;8.600;2024-03-02T12:41:51;22.70;31.80
51029;DHT22;37054;52.054;8.600;2024-03-02T12:44:19;22.60;31.40
51029;DHT22;37054;52.054;8.600;2024-03-02T12:46:46;22.30;31.50
51029;DHT22;37054;52.054;8.600;2024-03-02T12:49:13;21.90;32.00
51029;DHT22;37054;52.054;8.600;2024-03-02T12:51:39;21.80;32.70
51029;DHT22;37054;52.054;8.600;2024-03-02T12:54:07;21.80;33.10
51029;DHT22;37054;52.054;8.600;2024-03-02T12:56:33;21.80;33.00
51029;DHT22;37054;52.054;8.600;2024-03-02T12:58:59;21.80;32.70
51029;DHT22;37054;52.054;8.600;2024-03-02T13:01:25;21.80;32.90
51029;DHT22;37054;52.054;8.600;2024-03-02T13:03:52;21.70;32.70
51029;DHT22;37054;52.054;8.600;2024-03-02T13:06:18;21.60;32.90
51029;DHT22;37054;52.054;8.600;2024-03-02T13:08:45;21.50;33.10
51029;DHT22;37054;52.054;8.600;2024-03-02T13:11:11;21.30;33.30
51029;DHT22;37054;52.054;8.600;2024-03-02T13:13:37;21.10;33.40
51029;DHT22;37054;52.054;8.600;2024-03-02T13:16:06;21.00;33.60
51029;DHT22;37054;52.054;8.600;2024-03-02T13:18:33;20.70;33.90
51029;DHT22;37054;52.054;8.600;2024-03-02T13:20:59;20.50;34.30
51029;DHT22;37054;52.054;8.600;2024-03-02T13:23:24;20.30;34.60
51029;DHT22;37054;52.054;8.600;2024-03-02T13:25:50;20.10;35.00
51029;DHT22;37054;52.054;8.600;2024-03-02T13:28:16;20.00;35.30
51029;DHT22;37054;52.054;8.600;2024-03-02T13:30:41;20.00;35.60
51029;DHT22;37054;52.054;8.600;2024-03-02T13:33:07;19.90;35.90
51029;DHT22;37054;52.054;8.600;2024-03-02T13:35:32;19.80;36.00
51029;DHT22;37054;52.054;8.600;2024-03-02T13:37:59;19.80;36.20
51029;DHT22;37054;52.054;8.600;2024-03-02T13:40:24;19.70;36.20
51029;DHT22;37054;52.054;8.600;2024-03-02T13:42:50;19.60;36.30
51029;DHT22;37054;52.054;8.600;2024-03-02T13:45:17;19.50;36.30
51029;DHT22;37054;52.054;8.600;2024-03-02T13:47:43;19.50;36.40
51029;DHT22;37054;52.054;8.600;2024-03-02T13:50:09;19.40;36.60
51029;DHT22;37054;52.054;8.600;2024-03-02T13:52:35;19.40;36.70
51029;DHT22;37054;52.054;8.600;2024-03-02T13:55:01;19.40;36.80
51029;DHT22;37054;52.054;8.600;2024-03-02T13:57:26;19.40;36.90
51029;DHT22;37054;52.054;8.600;2024-03-02T13:59:55;19.50;36.90
51029;DHT22;37054;52.054;8.600;2024-03-02T14:02:20;19.50;36.60
51029;DHT22;37054;52.054;8.600;2024-03-02T14:04:48;19.40;36.50
51029;DHT22;37054;52.054;8.600;2024-03-02T14:07:14;19.40;36.50
51029;DHT22;37054;52.054;8.600;2024-03-02T14:09:40;19.40;36.70
51029;DHT22;37054;52.054;8.600;2024-03-02T14:12:06;19.40;36.80
51029;DHT22;37054;52.054;8.600;2024-03-02T14:14:32;19.40;36.80
51029;DHT22;37054;52.054;8.600;2024-03-02T14:16:57;19.50;36.50
51029;DHT22;37054;52.054;8.600;2024-03-02T14:19:29;19.50;36.30
51029;DHT22;37054;52.054;8.600;2024-03-02T14:21:55;19.50;36.00
51029;DHT22;37054;52.054;8.600;2024-03-02T14:24:21;19.50;36.10
51029;DHT22;37054;52.054;8.600;2024-03-02T14:26:51;19.50;36.00
51029;DHT22;37054;52.054;8.600;2024-03-02T14:29:17;19.40;36.10
51029;DHT22;37054;52.054;8.600;2024-03-02T14:31:43;19.30;36.00
51029;DHT22;37054;52.054;8.600;2024-03-02T14:34:09;19.30;36.10
51029;DHT22;37054;52.054;8.600;2024-03-02T14:36:35;19.30;36.10
51029;DHT22;37054;52.054;8.600;2024-03-02T14:39:00;19.20;36.30
51029;DHT22;37054;52.054;8.600;2024-03-02T14:41:26;19.20;36.50
51029;DHT22;37054;52.054;8.600;2024-03-02T14:43:51;19.20;36.60
51029;DHT22;37054;52.054;8.600;2024-03-02T14:46:17;19.20;36.70
51029;DHT22;37054;52.054;8.600;2024-03-02T14:48:44;19.10;36.70
51029;DHT22;37054;52.054;8.600;2024-03-02T14:51:10;19.00;36.80
51029;DHT22;37054;52.054;8.600;2024-03-02T14:53:36;19.00;36.80
51029;DHT22;37054;52.054;8.600;2024-03-02T14:56:03;18.90;36.90
51029;DHT22;37054;52.054;8.600;2024-03-02T14:58:29;18.90;36.90
51029;DHT22;37054;52.054;8.600;2024-03-02T15:00:55;18.80;37.00
51029;DHT22;37054;52.054;8.600;2024-03-02T15:03:20;18.80;37.10
51029;DHT22;37054;52.054;8.600;2024-03-02T15:05:46;18.80;37.10
51029;DHT22;37054;52.054;8.600;2024-03-02T15:08:12;18.80;37.20
51029;DHT22;37054;52.054;8.600;2024-03-02T15:10:37;18.80;37.10
51029;DHT22;37054;52.054;8.600;2024-03-02T15:13:03;18.80;37.10
51029;DHT22;37054;52.054;8.600;2024-03-02T15:15:29;18.80;37.20
51029;DHT22;37054;52.054;8.600;2024-03-02T15:17:54;18.70;37.40
51029;DHT22;37054;52.054;8.600;2024-03-02T15:20:20;18.70;37.50
51029;DHT22;37054;52.054;8.600;2024-03-02T15:22:47;18.70;37.60
51029;DHT22;37054;52.054;8.600;2024-03-02T15:25:12;18.70;37.60
51029;DHT22;37054;52.054;8.600;2024-03-02T15:27:38;18.70;37.60
51029;DHT22;37054;52.054;8.600;2024-03-02T15:30:05;18.60;37.60
51029;DHT22;37054;52.054;8.600;2024-03-02T15:32:31;18.60;37.60
51029;DHT22;37054;52.054;8.600;2024-03-02T15:34:57;18.50;37.70
51029;DHT22;37054;52.054;8.600;2024-03-02T15:37:23;18.50;37.70
51029;DHT22;37054;52.054;8.600;2024-03-02T15:39:48;18.50;37.80